Terminal Aerodrome Forecast
Issued by NWS Shreveport, LA

Home | Current Version | Previous Version | Text Only | Print | Product List | Glossary On
Versions: 1 2 3 4 5 6 7 8 9 10 11 12 13
851
FTUS44 KSHV 191720
TAFLFK
TAF
KLFK 191720Z 1918/2018 36008KT P6SM SCT300
     FM192200 36005KT P6SM BKN280
     FM200000 00000KT P6SM BKN280
     FM201500 13005KT P6SM BKN280=

USA.gov is the U.S. government's official web portal to all federal, state and local government web resources and services.